Toro, Louisiana
Current Conditions -  °F | °C
As of 2:26 PM on Monday 22 Dec 2014 (Local Time) from KAQV Reporting Station
Scattered Clouds Scattered Clouds  
Wind Chill: 71°   Ceiling: Unl
Heat Index: 71°   Visibility: 10mi
Dew Point: 62°   Wind: 9mph
Humidity: 73%   Direction: 180°S
Pressure: 29.57"   Gusts: 17mph
Location:  31.4159°N, 93.4621°W
Report Text: KAQV 222026Z AUTO 18008G15KT 10SM FEW019 SCT025 22/17 A2957 RMK AO2 T02170167
Loading
Personal Weather Stations






























Interactive Weather Map New forecast layout! Learn more

10-Day Weather Forecast

Advertisements
Track Severe Weather on mobile